createdAt,value
2018-06-07T00:01:19.657Z,4.40
2018-06-07T00:03:46.714Z,4.30
2018-06-07T00:06:13.741Z,4.97
2018-06-07T00:08:40.802Z,4.07
2018-06-07T00:11:07.841Z,3.70
2018-06-07T00:13:34.866Z,3.73
2018-06-07T00:16:01.885Z,3.20
2018-06-07T00:18:28.978Z,3.20
2018-06-07T00:20:55.997Z,3.00
2018-06-07T00:23:23.039Z,3.20
2018-06-07T00:25:50.097Z,3.07
2018-06-07T00:28:17.098Z,3.13
2018-06-07T00:30:44.119Z,3.27
2018-06-07T00:33:11.158Z,3.83
2018-06-07T00:35:38.184Z,3.67
2018-06-07T00:38:05.200Z,3.80
2018-06-07T00:40:32.928Z,3.90
2018-06-07T00:43:00.145Z,3.73
2018-06-07T00:45:27.031Z,3.50
2018-06-07T00:47:54.088Z,3.97
2018-06-07T00:53:00.671Z,5.03
2018-06-07T00:55:27.696Z,3.90
2018-06-07T00:57:57.174Z,3.77
2018-06-07T01:00:24.241Z,4.37
2018-06-07T01:02:51.295Z,3.90
2018-06-07T01:05:19.286Z,4.40
2018-06-07T01:07:46.361Z,4.00
2018-06-07T01:10:13.811Z,4.43
2018-06-07T01:12:40.840Z,4.77
2018-06-07T01:15:07.880Z,4.37
2018-06-07T01:17:34.908Z,5.00
2018-06-07T01:20:01.915Z,5.33
2018-06-07T01:22:30.445Z,4.83
2018-06-07T01:24:57.541Z,5.00
2018-06-07T01:27:24.574Z,4.90
2018-06-07T01:32:42.963Z,5.25
2018-06-07T01:35:10.035Z,4.50
2018-06-07T01:37:37.456Z,4.50
2018-06-07T01:40:04.467Z,4.77
2018-06-07T01:42:31.507Z,5.20
2018-06-07T01:44:59.009Z,5.27
2018-06-07T01:47:26.034Z,4.90
2018-06-07T01:49:53.104Z,4.57
2018-06-07T01:52:20.116Z,5.13
2018-06-07T01:54:47.149Z,4.97
2018-06-07T01:57:15.033Z,4.90
2018-06-07T01:59:42.981Z,4.10
2018-06-07T02:02:09.999Z,5.00
2018-06-07T02:04:37.063Z,4.70
2018-06-07T02:07:04.100Z,3.87
2018-06-07T02:09:31.139Z,4.90
2018-06-07T02:11:58.181Z,4.70
2018-06-07T02:14:26.144Z,4.53
2018-06-07T02:16:53.156Z,4.83
2018-06-07T02:19:21.179Z,4.97
2018-06-07T02:21:48.194Z,5.43
2018-06-07T02:24:15.252Z,4.60
2018-06-07T02:26:42.624Z,4.97
2018-06-07T02:29:10.465Z,4.80
2018-06-07T02:31:38.436Z,4.63
2018-06-07T02:34:06.463Z,5.63
2018-06-07T02:36:33.484Z,5.57
2018-06-07T02:39:00.576Z,5.23
2018-06-07T02:41:29.815Z,5.30
2018-06-07T02:43:56.687Z,4.93
2018-06-07T02:46:24.692Z,5.13
2018-06-07T02:48:51.758Z,4.87
2018-06-07T02:51:18.768Z,5.10
2018-06-07T02:53:45.783Z,5.40
2018-06-07T02:58:51.313Z,5.45
2018-06-07T03:01:18.430Z,4.80
2018-06-07T03:03:47.651Z,4.73
2018-06-07T03:06:14.712Z,4.00
2018-06-07T03:08:41.759Z,4.60
2018-06-07T03:11:08.774Z,4.63
2018-06-07T03:13:35.821Z,5.10
2018-06-07T03:16:02.880Z,4.33
2018-06-07T03:18:30.326Z,5.43
2018-06-07T03:20:57.334Z,5.10
2018-06-07T03:23:24.388Z,5.17
2018-06-07T03:25:51.415Z,5.10
2018-06-07T03:28:18.471Z,4.90
2018-06-07T03:30:45.516Z,4.20
2018-06-07T03:33:12.542Z,4.63
2018-06-07T03:35:40.518Z,4.37
2018-06-07T03:38:07.565Z,4.07
2018-06-07T03:40:34.578Z,3.87
2018-06-07T03:43:01.626Z,3.83
2018-06-07T03:45:28.681Z,4.37
2018-06-07T03:47:56.763Z,4.40
2018-06-07T03:50:24.523Z,4.30
2018-06-07T03:52:51.667Z,4.50
2018-06-07T03:57:57.448Z,5.00
2018-06-07T04:00:25.586Z,4.67
2018-06-07T04:02:52.595Z,4.63
2018-06-07T04:05:19.653Z,5.47
2018-06-07T04:07:46.687Z,4.43
2018-06-07T04:10:13.708Z,4.47
2018-06-07T04:12:40.750Z,5.13
2018-06-07T04:15:07.771Z,5.13
2018-06-07T04:17:34.779Z,5.20
2018-06-07T04:20:05.134Z,5.27
2018-06-07T04:22:32.153Z,4.43
2018-06-07T04:24:59.156Z,4.20
2018-06-07T04:27:26.194Z,5.00
2018-06-07T04:29:54.168Z,4.07
2018-06-07T04:32:21.167Z,4.17
2018-06-07T04:34:48.205Z,3.83
2018-06-07T04:37:16.035Z,3.60
2018-06-07T04:39:43.047Z,4.27
2018-06-07T04:42:10.105Z,4.30
2018-06-07T04:44:37.134Z,4.57
2018-06-07T04:47:04.155Z,4.07
2018-06-07T04:49:31.208Z,4.03
2018-06-07T04:51:58.227Z,4.43
2018-06-07T04:54:26.087Z,5.17
2018-06-07T04:56:53.133Z,5.13
2018-06-07T04:59:21.222Z,4.67
2018-06-07T05:01:48.246Z,5.07
2018-06-07T05:04:15.304Z,4.97
2018-06-07T05:06:42.374Z,5.10
2018-06-07T05:09:09.348Z,5.53
2018-06-07T05:11:36.392Z,4.67
2018-06-07T05:14:03.503Z,4.90
2018-06-07T05:16:30.536Z,4.03
2018-06-07T05:21:35.693Z,5.45
2018-06-07T05:24:02.741Z,4.67
2018-06-07T05:26:30.667Z,4.80
2018-06-07T05:28:57.697Z,5.27
2018-06-07T05:31:24.764Z,4.80
2018-06-07T05:33:51.791Z,5.20
2018-06-07T05:36:19.086Z,5.43
2018-06-07T05:38:46.223Z,5.57
2018-06-07T05:41:13.236Z,5.13
2018-06-07T05:43:40.262Z,6.07
2018-06-07T05:46:07.312Z,5.27
2018-06-07T05:48:34.359Z,5.67
2018-06-07T05:51:01.386Z,5.40
2018-06-07T05:53:28.467Z,5.00
2018-06-07T05:55:55.530Z,5.00
2018-06-07T05:58:23.431Z,5.13
2018-06-07T06:00:50.490Z,5.40
2018-06-07T06:03:17.517Z,5.73
2018-06-07T06:05:44.564Z,5.83
2018-06-07T06:08:11.611Z,5.73
2018-06-07T06:10:39.501Z,5.47
2018-06-07T06:13:06.512Z,5.30
2018-06-07T06:15:33.576Z,5.87
2018-06-07T06:18:01.429Z,5.67
2018-06-07T06:20:28.450Z,5.20
2018-06-07T06:25:30.519Z,6.47
2018-06-07T06:27:57.688Z,5.80
2018-06-07T06:30:25.356Z,5.37
2018-06-07T06:32:52.377Z,6.00
2018-06-07T06:35:19.491Z,5.40
2018-06-07T06:37:47.470Z,5.93
2018-06-07T06:40:14.576Z,5.30
2018-06-07T06:45:20.756Z,6.18
2018-06-07T06:47:47.826Z,5.77
2018-06-07T06:50:15.849Z,6.50
2018-06-07T06:52:42.877Z,5.53
2018-06-07T06:55:09.933Z,5.57
2018-06-07T06:57:38.729Z,4.77
2018-06-07T07:00:05.784Z,4.80
2018-06-07T07:02:32.850Z,5.13
2018-06-07T07:05:00.717Z,5.10
2018-06-07T07:10:06.861Z,5.50
2018-06-07T07:12:34.249Z,5.80
2018-06-07T07:15:03.504Z,5.50
2018-06-07T07:17:30.559Z,5.37
2018-06-07T07:19:58.488Z,5.20
2018-06-07T07:22:26.454Z,5.73
2018-06-07T07:24:53.522Z,5.03
2018-06-07T07:27:20.570Z,5.27
2018-06-07T07:29:47.615Z,5.23
2018-06-07T07:32:15.659Z,5.03
2018-06-07T07:34:43.679Z,5.20
2018-06-07T07:37:10.695Z,4.97
2018-06-07T07:39:37.793Z,4.50
2018-06-07T07:42:05.184Z,4.40
2018-06-07T07:44:32.211Z,4.80
2018-06-07T07:49:39.197Z,5.07
2018-06-07T07:52:06.773Z,4.70
2018-06-07T07:54:34.759Z,4.40
2018-06-07T07:57:02.731Z,4.73
2018-06-07T07:59:30.708Z,4.80
2018-06-07T08:04:38.844Z,4.93
2018-06-07T08:07:06.818Z,5.70
2018-06-07T08:09:33.879Z,5.00
2018-06-07T08:12:01.924Z,5.50
2018-06-07T08:14:29.010Z,4.40
2018-06-07T08:16:56.096Z,4.80
2018-06-07T08:19:23.994Z,5.20
2018-06-07T08:21:51.026Z,3.83
2018-06-07T08:24:19.322Z,4.27
2018-06-07T08:29:34.511Z,5.53
2018-06-07T08:32:01.847Z,5.03
2018-06-07T08:34:28.881Z,4.70
2018-06-07T08:39:36.066Z,5.10
2018-06-07T08:42:04.583Z,4.37
2018-06-07T08:44:31.611Z,4.47
2018-06-07T08:46:58.710Z,4.83
2018-06-07T08:49:25.755Z,4.47
2018-06-07T08:51:54.733Z,4.40
2018-06-07T08:54:22.198Z,4.47
2018-06-07T08:59:28.370Z,5.20
2018-06-07T09:04:34.550Z,4.65
2018-06-07T09:07:03.581Z,4.00
2018-06-07T09:12:12.264Z,4.18
2018-06-07T09:14:41.287Z,3.80
2018-06-07T09:17:10.356Z,4.00
2018-06-07T09:19:37.982Z,3.97
2018-06-07T09:24:39.155Z,3.17
2018-06-07T09:29:48.055Z,3.95
2018-06-07T09:35:01.829Z,4.28
2018-06-07T09:42:54.993Z,4.00
2018-06-07T09:45:26.400Z,3.40
2018-06-07T09:48:01.183Z,3.60
2018-06-07T09:50:23.887Z,3.60
2018-06-07T09:52:51.091Z,3.20
2018-06-07T09:55:20.737Z,3.63
2018-06-07T10:08:05.684Z,3.70
2018-06-07T10:10:36.265Z,3.70
2018-06-07T10:13:06.355Z,3.57
2018-06-07T10:15:40.231Z,3.73
2018-06-07T10:18:07.607Z,3.93
2018-06-07T10:20:34.989Z,3.33
2018-06-07T10:26:32.424Z,3.40
2018-06-07T10:29:02.919Z,3.37
2018-06-07T10:31:34.664Z,3.23
2018-06-07T10:34:06.184Z,3.30
2018-06-07T10:36:35.198Z,3.10
2018-06-07T10:39:07.448Z,3.47
2018-06-07T10:41:51.716Z,3.00
2018-06-07T10:47:04.599Z,3.92
2018-06-07T10:49:32.353Z,4.00
2018-06-07T10:52:00.006Z,3.13
2018-06-07T10:54:27.851Z,3.03
2018-06-07T10:56:55.104Z,3.00
2018-06-07T11:06:06.101Z,3.97
2018-06-07T11:08:36.394Z,4.17
2018-06-07T11:11:03.423Z,3.60
2018-06-07T11:13:45.385Z,3.50
2018-06-07T11:16:29.895Z,3.47
2018-06-07T11:19:02.286Z,3.30
2018-06-07T11:24:19.188Z,3.70
2018-06-07T11:26:51.774Z,3.60
2018-06-07T11:29:21.179Z,3.97
2018-06-07T11:34:44.522Z,3.77
2018-06-07T11:57:58.394Z,3.90
2018-06-07T12:14:24.533Z,3.43
2018-06-07T12:16:58.407Z,2.90
2018-06-07T12:19:30.874Z,2.07
2018-06-07T12:22:05.001Z,1.97
2018-06-07T12:46:37.292Z,2.33
2018-06-07T12:49:08.876Z,2.10
2018-06-07T12:54:25.716Z,2.20
2018-06-07T12:56:57.474Z,2.20
2018-06-07T13:07:53.210Z,2.33
2018-06-07T13:15:55.951Z,2.90
2018-06-07T13:18:29.151Z,2.57
2018-06-07T13:21:09.319Z,2.27
2018-06-07T13:31:53.102Z,3.83
2018-06-07T13:34:26.725Z,3.30
2018-06-07T13:43:27.043Z,4.10
2018-06-07T13:45:57.073Z,3.03
2018-06-07T13:48:40.936Z,3.63
2018-06-07T14:45:47.776Z,2.53
2018-06-07T14:53:47.172Z,3.10
2018-06-07T14:56:13.436Z,3.20
2018-06-07T14:58:46.659Z,3.03
2018-06-07T15:01:25.847Z,2.60
2018-06-07T15:06:45.600Z,2.90
2018-06-07T15:48:38.749Z,3.80
2018-06-07T15:51:09.121Z,3.77
2018-06-07T15:53:33.196Z,3.67
2018-06-07T15:56:02.217Z,3.57
2018-06-07T15:58:30.017Z,3.77
2018-06-07T16:00:57.085Z,3.80
2018-06-07T16:03:24.641Z,4.60
2018-06-07T16:08:33.699Z,4.70
2018-06-07T16:11:00.806Z,4.70
2018-06-07T16:13:27.920Z,5.03
2018-06-07T16:15:55.011Z,5.17
2018-06-07T16:21:13.301Z,5.23
2018-06-07T16:23:43.132Z,5.40
2018-06-07T16:26:11.512Z,5.43
2018-06-07T16:28:41.331Z,5.13
2018-06-07T16:31:08.984Z,5.37
2018-06-07T16:33:36.475Z,5.77
2018-06-07T16:36:03.575Z,5.23
2018-06-07T16:38:30.533Z,5.20
2018-06-07T16:40:57.655Z,5.00
2018-06-07T16:43:24.729Z,5.47
2018-06-07T16:45:51.738Z,5.80
2018-06-07T16:48:18.914Z,5.57
2018-06-07T16:50:45.961Z,5.70
2018-06-07T16:55:53.169Z,5.87
2018-06-07T16:58:20.263Z,4.90
2018-06-07T17:00:47.298Z,5.00
2018-06-07T17:03:14.454Z,5.70
2018-06-07T17:05:41.472Z,5.07
2018-06-07T17:08:08.480Z,5.57
2018-06-07T17:10:36.105Z,5.87
2018-06-07T17:13:04.376Z,5.40
2018-06-07T17:15:31.406Z,5.37
2018-06-07T17:17:58.460Z,5.43
2018-06-07T17:20:26.361Z,5.73
2018-06-07T17:22:53.406Z,6.07
2018-06-07T17:25:20.429Z,5.33
2018-06-07T17:27:47.455Z,5.60
2018-06-07T17:30:15.316Z,5.77
2018-06-07T17:35:21.420Z,6.43
2018-06-07T17:37:48.460Z,6.20
2018-06-07T17:40:15.475Z,5.40
2018-06-07T17:42:43.048Z,4.93
2018-06-07T17:45:10.954Z,4.90
2018-06-07T17:47:38.707Z,5.73
2018-06-07T17:50:05.708Z,5.20
2018-06-07T17:52:32.762Z,5.60
2018-06-07T17:54:59.802Z,5.37
2018-06-07T18:00:07.591Z,6.57
2018-06-07T18:02:34.699Z,6.63
2018-06-07T18:05:01.728Z,6.33
2018-06-07T18:07:30.237Z,5.90
2018-06-07T18:09:57.285Z,6.20
2018-06-07T18:12:24.399Z,6.50
2018-06-07T18:14:54.700Z,6.10
2018-06-07T18:17:21.727Z,7.03
2018-06-07T18:19:48.761Z,6.87
2018-06-07T18:22:15.841Z,7.40
2018-06-07T18:24:47.119Z,6.87
2018-06-07T18:27:12.247Z,6.70
2018-06-07T18:32:19.231Z,7.62
2018-06-07T18:34:46.276Z,6.87
2018-06-07T18:37:13.341Z,7.77
2018-06-07T18:39:40.408Z,8.40
2018-06-07T18:42:07.480Z,7.63
2018-06-07T18:44:35.367Z,8.53
2018-06-07T18:47:02.527Z,8.73
2018-06-07T18:49:29.599Z,8.97
2018-06-07T18:51:57.292Z,8.97
2018-06-07T18:54:24.310Z,8.37
2018-06-07T18:56:51.377Z,9.00
2018-06-07T18:59:18.404Z,8.27
2018-06-07T19:01:45.474Z,9.00
2018-06-07T19:04:12.532Z,7.80
2018-06-07T19:06:39.549Z,7.93
2018-06-07T19:09:07.710Z,9.50
2018-06-07T19:14:15.061Z,10.02
2018-06-07T19:22:10.272Z,10.90
2018-06-07T19:24:37.320Z,8.67
2018-06-07T19:29:43.233Z,10.00
2018-06-07T19:32:10.277Z,8.57
2018-06-07T19:34:37.312Z,8.80
2018-06-07T19:37:04.383Z,8.43
2018-06-07T19:42:09.581Z,8.65
2018-06-07T19:44:36.627Z,8.20
2018-06-07T19:47:03.649Z,9.07
2018-06-07T19:49:31.661Z,8.77
2018-06-07T19:51:58.689Z,7.53
2018-06-07T19:57:12.885Z,9.13
2018-06-07T19:59:39.869Z,6.43
2018-06-07T20:04:46.194Z,5.37
2018-06-07T20:07:13.206Z,4.93
2018-06-07T20:12:21.019Z,5.15
2018-06-07T20:14:48.106Z,4.70
2018-06-07T20:17:15.301Z,4.63
2018-06-07T20:19:42.430Z,4.63
2018-06-07T20:22:10.201Z,4.50
2018-06-07T20:24:36.569Z,3.90
2018-06-07T20:27:05.149Z,4.30
2018-06-07T20:29:32.185Z,4.50
2018-06-07T20:31:59.222Z,5.00
2018-06-07T20:34:26.320Z,4.70
2018-06-07T20:36:54.940Z,4.97
2018-06-07T20:39:21.869Z,4.27
2018-06-07T20:41:48.960Z,4.13
2018-06-07T20:44:22.810Z,4.93
2018-06-07T20:46:50.638Z,4.83
2018-06-07T20:49:27.032Z,4.63
2018-06-07T20:51:55.566Z,5.20
2018-06-07T20:54:21.976Z,4.83
2018-06-07T20:56:49.642Z,4.53
2018-06-07T20:59:16.963Z,4.83
2018-06-07T21:04:22.994Z,5.20
2018-06-07T21:06:50.815Z,4.63
2018-06-07T21:09:17.805Z,4.53
2018-06-07T21:14:28.689Z,4.40
2018-06-07T21:16:55.743Z,3.67
2018-06-07T21:22:00.969Z,3.62
2018-06-07T21:24:27.993Z,3.50
2018-06-07T21:26:55.011Z,3.80
2018-06-07T21:29:23.019Z,4.50
2018-06-07T21:31:50.046Z,4.80
2018-06-07T21:34:17.994Z,5.27
2018-06-07T21:36:45.041Z,3.27
2018-06-07T21:39:12.084Z,3.60
2018-06-07T21:41:39.940Z,3.90
2018-06-07T21:44:06.956Z,4.13
2018-06-07T21:46:36.142Z,4.77
2018-06-07T21:49:01.886Z,4.47
2018-06-07T21:51:28.925Z,4.13
2018-06-07T21:53:55.933Z,4.03
2018-06-07T21:56:22.940Z,4.63
2018-06-07T21:58:50.803Z,3.60
2018-06-07T22:01:17.812Z,3.67
2018-06-07T22:03:44.826Z,4.30
2018-06-07T22:08:50.113Z,4.20
2018-06-07T22:11:17.156Z,3.97
2018-06-07T22:13:44.176Z,2.70
2018-06-07T22:16:11.164Z,3.63
2018-06-07T22:18:38.984Z,3.90
2018-06-07T22:21:05.991Z,3.03
2018-06-07T22:23:33.827Z,2.93
2018-06-07T22:26:00.866Z,3.67
2018-06-07T22:28:28.749Z,3.20
2018-06-07T22:30:55.793Z,3.20
2018-06-07T22:33:22.855Z,3.50
2018-06-07T22:35:49.863Z,4.57
2018-06-07T22:40:55.316Z,4.35
2018-06-07T22:43:22.421Z,4.43
2018-06-07T22:45:50.256Z,5.13
2018-06-07T22:48:18.147Z,4.50
2018-06-07T22:50:45.599Z,4.93
2018-06-07T22:53:13.456Z,4.10
2018-06-07T22:55:40.496Z,4.77
2018-06-07T22:58:07.516Z,4.83
2018-06-07T23:00:37.845Z,4.40
2018-06-07T23:03:02.670Z,5.03
2018-06-07T23:08:08.652Z,5.50
2018-06-07T23:10:35.646Z,4.57
2018-06-07T23:13:02.648Z,4.73
2018-06-07T23:15:30.036Z,5.03
2018-06-07T23:17:56.686Z,4.93
2018-06-07T23:20:23.711Z,4.17
2018-06-07T23:22:50.772Z,4.50
2018-06-07T23:25:17.804Z,4.70
2018-06-07T23:27:44.847Z,4.53
2018-06-07T23:30:12.652Z,4.73
2018-06-07T23:32:39.685Z,4.33
2018-06-07T23:35:06.701Z,4.40
2018-06-07T23:37:33.762Z,4.40
2018-06-07T23:40:00.781Z,4.23
2018-06-07T23:42:29.859Z,4.40
2018-06-07T23:44:56.890Z,4.10
2018-06-07T23:47:24.711Z,5.00
2018-06-07T23:49:51.710Z,4.43
2018-06-07T23:52:18.763Z,5.10
2018-06-07T23:57:24.902Z,4.87
2018-06-07T23:59:51.914Z,5.17
